Time;durP1;ratioP1;P1;durP2;ratioP2;P2;SDS_P1;SDS_P2;PMS_P1;PMS_P2;Temp;Humidity;BMP_temperature;BMP_pressure;BME280_temperature;BME280_humidity;BME280_pressure;Samples;Min_cycle;Max_cycle;Signal;HPM_P1;HPM_P2
2024/01/06 00:01:41;;;;;;;13.47;5.20;;;7.70;99.90;;;;;;5049743;28;20036;-78
2024/01/06 00:04:06;;;;;;;20.73;5.57;;;7.60;99.90;;;;;;5049974;28;20286;-77
2024/01/06 00:06:32;;;;;;;19.27;5.40;;;7.60;99.90;;;;;;5049742;28;20037;-78
2024/01/06 00:08:58;;;;;;;11.80;4.90;;;7.60;99.90;;;;;;5050562;28;20028;-77
2024/01/06 00:11:23;;;;;;;14.23;4.43;;;7.60;99.90;;;;;;5049748;28;20115;-78
2024/01/06 00:13:49;;;;;;;14.37;5.43;;;7.50;99.90;;;;;;5051597;28;20272;-76
2024/01/06 00:16:19;;;;;;;10.30;3.88;;;7.50;99.90;;;;;;5048789;28;20021;-78
2024/01/06 00:18:45;;;;;;;17.02;4.57;;;7.50;99.90;;;;;;5050058;28;20021;-78
2024/01/06 00:21:11;;;;;;;14.02;5.30;;;7.50;99.90;;;;;;5050012;28;20029;-77
2024/01/06 00:23:36;;;;;;;11.83;4.90;;;7.50;99.90;;;;;;5048115;28;20507;-77
2024/01/06 00:26:03;;;;;;;17.73;3.83;;;7.40;99.90;;;;;;5048412;28;20067;-77
2024/01/06 00:28:29;;;;;;;6.20;3.22;;;7.40;99.90;;;;;;5049630;28;20033;-78
2024/01/06 00:30:55;;;;;;;5.00;2.40;;;7.40;99.90;;;;;;5047705;28;20036;-78
2024/01/06 00:33:21;;;;;;;7.23;2.70;;;7.50;99.90;;;;;;5050311;28;20044;-78
2024/01/06 00:35:46;;;;;;;3.92;2.55;;;7.40;99.90;;;;;;5065310;28;20104;-79
2024/01/06 00:38:12;;;;;;;9.73;3.00;;;7.40;99.90;;;;;;5049708;28;20502;-79
2024/01/06 00:40:38;;;;;;;12.60;2.80;;;7.40;99.90;;;;;;5049202;28;20106;-78
2024/01/06 00:43:03;;;;;;;10.55;2.88;;;7.40;99.90;;;;;;5050357;28;20068;-77
2024/01/06 00:45:30;;;;;;;15.27;2.77;;;7.40;99.90;;;;;;5049889;28;20048;-77
2024/01/06 00:47:56;;;;;;;5.50;2.90;;;7.40;99.90;;;;;;5049815;28;20548;-79
2024/01/06 00:50:21;;;;;;;8.53;3.50;;;7.40;99.90;;;;;;5049961;28;20032;-78
2024/01/06 00:52:47;;;;;;;8.50;2.63;;;7.40;99.90;;;;;;5049919;28;20029;-78
2024/01/06 00:55:13;;;;;;;5.40;2.47;;;7.40;99.90;;;;;;5048361;28;20025;-77
2024/01/06 00:57:39;;;;;;;6.03;2.37;;;7.40;99.90;;;;;;5050234;28;20041;-78
2024/01/06 01:00:05;;;;;;;6.17;2.10;;;7.40;99.90;;;;;;5049600;28;20555;-78
2024/01/06 01:02:31;;;;;;;11.02;2.20;;;7.40;99.90;;;;;;5033934;28;20089;-77
2024/01/06 01:04:57;;;;;;;11.48;2.08;;;7.30;99.90;;;;;;5030076;28;20035;-78
2024/01/06 01:07:24;;;;;;;9.65;1.95;;;7.30;99.90;;;;;;5030558;28;20029;-79
2024/01/06 01:09:49;;;;;;;;;;;7.30;99.90;;;;;;5031142;28;20040;-78
2024/01/06 01:12:15;;;;;;;5.95;2.47;;;7.40;99.90;;;;;;5029874;28;19905;-76
2024/01/06 01:14:41;;;;;;;7.10;2.25;;;7.30;99.90;;;;;;5029945;28;20029;-78
2024/01/06 01:17:07;;;;;;;6.80;2.00;;;7.30;99.90;;;;;;5048557;28;20441;-77
2024/01/06 01:19:32;;;;;;;11.37;2.33;;;7.30;99.90;;;;;;5049373;28;20061;-78
2024/01/06 01:21:58;;;;;;;8.93;2.23;;;7.30;99.90;;;;;;5049513;28;20025;-76
2024/01/06 01:24:23;;;;;;;6.43;1.80;;;7.30;99.90;;;;;;5033258;28;20026;-80
2024/01/06 01:26:50;;;;;;;6.67;2.50;;;7.30;99.90;;;;;;5040558;28;20037;-80
2024/01/06 01:29:17;;;;;;;7.53;1.92;;;7.30;99.90;;;;;;5053478;28;20029;-80
2024/01/06 01:31:42;;;;;;;5.70;1.92;;;7.30;99.90;;;;;;5054342;28;20040;-78
2024/01/06 01:34:08;;;;;;;16.23;2.37;;;7.30;99.90;;;;;;5053708;28;20466;-78
2024/01/06 01:36:34;;;;;;;8.30;2.10;;;7.20;99.90;;;;;;5052602;28;20495;-80
2024/01/06 01:38:59;;;;;;;11.43;2.40;;;7.20;99.90;;;;;;5052345;28;20029;-80
2024/01/06 01:41:25;;;;;;;21.63;2.80;;;7.20;99.90;;;;;;5050587;28;20059;-80
2024/01/06 01:43:57;;;;;;;14.30;2.73;;;7.20;99.90;;;;;;5052614;28;20368;-78
2024/01/06 01:46:27;;;;;;;8.13;2.47;;;7.20;99.90;;;;;;5052244;28;20100;-81
2024/01/06 01:48:57;;;;;;;5.25;1.77;;;7.10;99.90;;;;;;5053070;28;20162;-78
2024/01/06 01:51:26;;;;;;;10.27;2.53;;;7.20;99.90;;;;;;5053154;28;20111;-80
2024/01/06 01:53:52;;;;;;;6.85;2.25;;;7.10;99.90;;;;;;5052822;28;20491;-79
2024/01/06 01:56:18;;;;;;;12.07;2.13;;;7.10;99.90;;;;;;5053025;28;20032;-79
2024/01/06 01:58:44;;;;;;;7.03;2.38;;;7.10;99.90;;;;;;5052010;28;20075;-80
2024/01/06 02:01:10;;;;;;;10.17;2.10;;;7.10;99.90;;;;;;5034539;28;20114;-80
2024/01/06 02:03:37;;;;;;;14.43;2.20;;;7.10;99.90;;;;;;5032320;28;20056;-81
2024/01/06 02:06:03;;;;;;;5.03;1.83;;;7.10;99.90;;;;;;5032433;28;20530;-77
2024/01/06 02:08:29;;;;;;;10.25;2.10;;;7.10;99.90;;;;;;5032589;28;20024;-80
2024/01/06 02:10:56;;;;;;;5.40;1.77;;;7.10;99.90;;;;;;5064227;28;20781;-79
2024/01/06 02:13:22;;;;;;;16.27;1.98;;;7.10;99.90;;;;;;5032126;28;20022;-79
2024/01/06 02:15:48;;;;;;;6.82;2.38;;;7.00;99.90;;;;;;5032466;28;20152;-79
2024/01/06 02:18:13;;;;;;;6.57;2.13;;;7.00;99.90;;;;;;5032502;28;20116;-79
2024/01/06 02:20:43;;;;;;;12.47;2.60;;;7.00;99.90;;;;;;5032831;28;20030;-80
2024/01/06 02:23:09;;;;;;;12.48;2.30;;;7.00;99.90;;;;;;5049397;28;20029;-78
2024/01/06 02:25:35;;;;;;;5.23;2.00;;;7.00;99.90;;;;;;5043306;28;20032;-79
2024/01/06 02:28:01;;;;;;;11.93;1.88;;;7.00;99.90;;;;;;5052341;28;20021;-80
2024/01/06 02:30:26;;;;;;;5.95;2.47;;;7.00;99.90;;;;;;5051778;28;20108;-78
2024/01/06 02:32:52;;;;;;;4.93;1.53;;;7.00;99.90;;;;;;5051475;28;20103;-80
2024/01/06 02:35:18;;;;;;;9.10;2.20;;;7.00;99.90;;;;;;5049960;28;20028;-82
2024/01/06 02:37:43;;;;;;;6.90;1.70;;;7.10;99.90;;;;;;5051592;28;20029;-80
2024/01/06 02:40:10;;;;;;;8.37;1.90;;;7.00;99.90;;;;;;5050485;28;20021;-77
2024/01/06 02:42:35;;;;;;;7.45;2.00;;;7.00;99.90;;;;;;5050546;28;20043;-78
2024/01/06 02:45:01;;;;;;;13.00;2.10;;;7.00;99.90;;;;;;5050515;28;20120;-78
2024/01/06 02:47:26;;;;;;;8.90;1.53;;;7.00;99.90;;;;;;5051791;28;20051;-79
2024/01/06 02:49:52;;;;;;;11.60;1.67;;;7.00;99.90;;;;;;5052080;28;20032;-80
2024/01/06 02:52:18;;;;;;;9.83;2.07;;;7.00;99.90;;;;;;5052114;28;20052;-80
2024/01/06 02:54:43;;;;;;;6.60;1.97;;;7.00;99.90;;;;;;5052731;28;20021;-81
2024/01/06 02:57:09;;;;;;;8.93;1.83;;;7.00;99.90;;;;;;5051464;28;20078;-80
2024/01/06 02:59:34;;;;;;;3.37;1.47;;;6.90;99.90;;;;;;5049755;28;20036;-78
2024/01/06 03:02:01;;;;;;;7.93;1.50;;;7.00;99.90;;;;;;5049506;28;20024;-78
2024/01/06 03:04:26;;;;;;;;;;;6.90;99.90;;;;;;5051693;28;20029;-80
2024/01/06 03:06:53;;;;;;;8.35;1.63;;;6.90;99.90;;;;;;5051224;28;19908;-81
2024/01/06 03:09:19;;;;;;;11.35;2.03;;;6.90;99.90;;;;;;5051345;28;20060;-80
2024/01/06 03:11:45;;;;;;;8.88;1.63;;;6.90;99.90;;;;;;5051468;28;20064;-77
2024/01/06 03:14:10;;;;;;;13.18;2.63;;;6.90;99.90;;;;;;5051354;28;20025;-78
2024/01/06 03:16:36;;;;;;;9.40;1.80;;;6.80;99.90;;;;;;5051114;28;20025;-80
2024/01/06 03:19:02;;;;;;;7.77;2.10;;;6.80;99.90;;;;;;5049753;28;20056;-79
2024/01/06 03:21:27;;;;;;;13.07;2.63;;;6.80;99.90;;;;;;5049744;28;20410;-78
2024/01/06 03:23:55;;;;;;;18.73;2.40;;;6.80;99.90;;;;;;5049849;28;20529;-81
2024/01/06 03:26:21;;;;;;;3.33;1.80;;;6.80;99.90;;;;;;5052243;28;20033;-78
2024/01/06 03:28:49;;;;;;;6.28;1.73;;;6.80;99.90;;;;;;5052106;28;20032;-78
2024/01/06 03:31:15;;;;;;;8.07;1.98;;;6.80;99.90;;;;;;5050150;28;20040;-82
2024/01/06 03:33:40;;;;;;;10.23;2.20;;;6.80;99.90;;;;;;5048876;28;20412;-81
2024/01/06 03:36:07;;;;;;;7.67;2.10;;;6.80;99.90;;;;;;5048427;28;20024;-82
2024/01/06 03:38:32;;;;;;;;;;;6.80;99.90;;;;;;5051018;28;20029;-81
2024/01/06 03:40:58;;;;;;;10.55;2.08;;;6.80;99.90;;;;;;5050661;28;19920;-79
2024/01/06 03:43:24;;;;;;;3.47;1.30;;;6.80;99.90;;;;;;5050309;28;20114;-80
2024/01/06 03:45:49;;;;;;;7.10;2.30;;;6.70;99.90;;;;;;5049048;28;20053;-81
2024/01/06 03:48:15;;;;;;;7.17;1.70;;;6.70;99.90;;;;;;5050649;28;20282;-80
2024/01/06 03:50:41;;;;;;;8.30;2.30;;;6.70;99.90;;;;;;5049739;28;20091;-80
2024/01/06 03:53:06;;;;;;;4.43;1.73;;;6.60;99.90;;;;;;5049911;28;20033;-82
2024/01/06 03:55:32;;;;;;;11.93;2.97;;;;;;;;;;5049935;28;20032;-83
2024/01/06 03:57:58;;;;;;;10.77;2.95;;;6.70;99.90;;;;;;5049867;28;20028;-81
2024/01/06 04:00:28;;;;;;;13.00;2.27;;;6.60;99.90;;;;;;5050279;28;20108;-78
2024/01/06 04:02:53;;;;;;;15.13;1.73;;;6.60;99.90;;;;;;5050828;28;20086;-79
2024/01/06 04:05:19;;;;;;;7.17;1.97;;;6.60;99.90;;;;;;5050731;28;20498;-80
2024/01/06 04:07:44;;;;;;;9.13;1.90;;;6.70;99.90;;;;;;5051286;28;20036;-78
2024/01/06 04:10:10;;;;;;;14.47;1.97;;;6.70;99.90;;;;;;5050466;28;20044;-79
2024/01/06 04:12:35;;;;;;;14.40;2.23;;;6.70;99.90;;;;;;5050943;28;20029;-79
2024/01/06 04:15:01;;;;;;;7.70;2.10;;;6.60;99.90;;;;;;5051110;28;20059;-80
2024/01/06 04:17:27;;;;;;;16.20;2.80;;;6.60;99.90;;;;;;5050699;28;20025;-81
2024/01/06 04:19:53;;;;;;;18.37;3.00;;;6.60;99.90;;;;;;5050494;28;20058;-81
2024/01/06 04:22:19;;;;;;;16.80;2.75;;;6.60;99.90;;;;;;5048793;28;20021;-81
2024/01/06 04:24:44;;;;;;;6.38;2.25;;;6.60;99.90;;;;;;5048753;28;20059;-80
2024/01/06 04:27:10;;;;;;;9.73;2.20;;;6.60;99.90;;;;;;5050471;28;20021;-80
2024/01/06 04:29:36;;;;;;;8.23;2.35;;;6.60;99.90;;;;;;5050277;28;20067;-81
2024/01/06 04:32:02;;;;;;;7.27;2.03;;;6.60;99.90;;;;;;5051405;28;20033;-80
2024/01/06 04:34:27;;;;;;;12.95;2.55;;;6.60;99.90;;;;;;5049311;28;20276;-81
2024/01/06 04:36:53;;;;;;;9.50;1.83;;;6.60;99.90;;;;;;5055242;28;20037;-81
2024/01/06 04:39:18;;;;;;;11.93;2.50;;;6.50;99.90;;;;;;5050036;28;20021;-80
2024/01/06 04:41:44;;;;;;;8.70;2.10;;;6.50;99.90;;;;;;5048412;28;20037;-80
2024/01/06 04:44:10;;;;;;;12.37;3.27;;;6.50;99.90;;;;;;5050412;28;20025;-79
2024/01/06 04:46:35;;;;;;;8.30;2.17;;;6.50;99.90;;;;;;5050288;28;20047;-79
2024/01/06 04:49:01;;;;;;;10.63;2.03;;;6.50;99.90;;;;;;5048862;28;20432;-80
2024/01/06 04:51:29;;;;;;;14.40;2.50;;;6.50;99.90;;;;;;5049100;28;20045;-78
2024/01/06 04:53:55;;;;;;;14.15;2.42;;;6.50;99.90;;;;;;5049825;28;20039;-78
2024/01/06 04:56:21;;;;;;;10.73;2.23;;;6.50;99.90;;;;;;5050397;28;20498;-81
2024/01/06 04:58:46;;;;;;;9.23;2.30;;;6.50;99.90;;;;;;5052458;28;20474;-78
2024/01/06 05:01:12;;;;;;;13.23;2.53;;;6.50;99.90;;;;;;5054274;28;20108;-79
2024/01/06 05:03:38;;;;;;;9.63;2.58;;;6.50;99.90;;;;;;5053808;28;20122;-82
2024/01/06 05:06:04;;;;;;;8.47;2.70;;;6.40;99.90;;;;;;5053994;28;20049;-82
2024/01/06 05:08:30;;;;;;;3.33;2.00;;;6.50;99.90;;;;;;5052227;28;20566;-82
2024/01/06 05:10:56;;;;;;;4.72;2.55;;;6.40;99.90;;;;;;5053688;28;20036;-79
2024/01/06 05:13:22;;;;;;;10.90;2.30;;;6.40;99.90;;;;;;5053853;28;20033;-79
2024/01/06 05:15:48;;;;;;;8.90;2.13;;;6.50;99.90;;;;;;5053840;28;20505;-79
2024/01/06 05:18:13;;;;;;;6.90;1.97;;;6.40;99.90;;;;;;5053166;28;20025;-77
2024/01/06 05:20:40;;;;;;;6.53;1.97;;;6.40;99.90;;;;;;5038303;28;20479;-78
2024/01/06 05:23:06;;;;;;;7.45;2.20;;;6.40;99.90;;;;;;5033968;28;20509;-81
2024/01/06 05:25:32;;;;;;;10.00;2.28;;;6.40;99.90;;;;;;5033820;28;20029;-80
2024/01/06 05:27:58;;;;;;;6.27;1.90;;;6.40;99.90;;;;;;5071551;28;20058;-78
2024/01/06 05:30:23;;;;;;;6.93;2.40;;;6.40;99.90;;;;;;5053207;28;20032;-79
2024/01/06 05:32:49;;;;;;;7.63;2.03;;;6.40;99.90;;;;;;5053827;28;20112;-79
2024/01/06 05:35:16;;;;;;;8.97;2.93;;;6.40;99.90;;;;;;5053993;28;20698;-79
2024/01/06 05:37:42;;;;;;;18.55;2.40;;;6.40;99.90;;;;;;5053049;28;20099;-79
2024/01/06 05:40:09;;;;;;;7.07;2.20;;;6.40;99.90;;;;;;5052940;28;20057;-81
2024/01/06 05:42:34;;;;;;;7.97;1.92;;;6.40;99.90;;;;;;5068390;28;20037;-81
2024/01/06 05:45:00;;;;;;;5.23;2.10;;;6.40;99.90;;;;;;5052650;28;20421;-80
2024/01/06 05:47:26;;;;;;;10.82;2.50;;;6.40;99.90;;;;;;5052784;28;20368;-78
2024/01/06 05:49:51;;;;;;;8.30;2.23;;;6.40;99.90;;;;;;5051959;28;20037;-78
2024/01/06 05:52:17;;;;;;;9.97;2.33;;;6.40;99.90;;;;;;5053038;28;20037;-81
2024/01/06 05:54:43;;;;;;;12.23;2.10;;;6.30;99.90;;;;;;5051467;28;20025;-78
2024/01/06 05:57:08;;;;;;;8.53;2.30;;;6.40;99.90;;;;;;5053500;28;20029;-82
2024/01/06 05:59:35;;;;;;;9.80;1.97;;;6.30;99.90;;;;;;5053116;28;20033;-81
2024/01/06 06:02:01;;;;;;;10.55;2.05;;;6.30;99.90;;;;;;5040221;28;20288;-83
2024/01/06 06:04:27;;;;;;;9.40;2.97;;;6.30;99.90;;;;;;5044683;28;20053;-80
2024/01/06 06:06:53;;;;;;;9.48;2.53;;;6.30;99.90;;;;;;5041940;28;20135;-77
2024/01/06 06:09:20;;;;;;;10.23;2.45;;;6.30;99.90;;;;;;5050972;28;20028;-80
2024/01/06 06:11:46;;;;;;;9.35;2.17;;;6.30;99.90;;;;;;5047212;28;20462;-77
2024/01/06 06:14:12;;;;;;;10.30;2.33;;;6.30;99.90;;;;;;5043405;28;20030;-78
2024/01/06 06:16:38;;;;;;;11.07;2.30;;;6.20;99.90;;;;;;5040888;28;20026;-77
2024/01/06 06:19:04;;;;;;;14.05;3.05;;;6.20;99.90;;;;;;5041149;28;20041;-77
2024/01/06 06:21:29;;;;;;;7.57;2.23;;;6.30;99.90;;;;;;5034653;28;20047;-78
2024/01/06 06:23:55;;;;;;;7.80;2.60;;;6.30;99.90;;;;;;5045089;28;20553;-77
2024/01/06 06:26:21;;;;;;;7.00;2.43;;;6.20;99.90;;;;;;5040783;28;20033;-78
2024/01/06 06:28:46;;;;;;;10.43;2.93;;;6.20;99.90;;;;;;5047504;28;20063;-81
2024/01/06 06:31:12;;;;;;;11.83;2.40;;;6.20;99.90;;;;;;5043956;28;20413;-80
2024/01/06 06:33:39;;;;;;;12.83;2.70;;;6.20;99.90;;;;;;5042012;28;20514;-81
2024/01/06 06:36:05;;;;;;;6.13;2.25;;;6.20;99.90;;;;;;5050625;28;20136;-78
2024/01/06 06:38:30;;;;;;;11.68;2.40;;;6.20;99.90;;;;;;5045791;28;20060;-80
2024/01/06 06:40:56;;;;;;;6.03;2.20;;;6.20;99.90;;;;;;5034335;28;20030;-80
2024/01/06 06:43:22;;;;;;;9.10;2.23;;;6.10;99.90;;;;;;5056386;28;20032;-78
2024/01/06 06:45:47;;;;;;;16.08;2.53;;;6.20;99.90;;;;;;5048130;28;20033;-78
2024/01/06 06:48:13;;;;;;;13.80;2.57;;;6.10;99.90;;;;;;5037792;28;20152;-80
2024/01/06 06:50:40;;;;;;;9.45;2.80;;;6.20;99.90;;;;;;5040652;28;20123;-79
2024/01/06 06:53:06;;;;;;;6.28;2.45;;;6.20;99.90;;;;;;5036554;28;20029;-79
2024/01/06 06:55:32;;;;;;;11.77;2.40;;;6.20;99.90;;;;;;5041674;28;20051;-78
2024/01/06 06:57:57;;;;;;;6.17;2.40;;;6.10;99.90;;;;;;5038284;28;20072;-77
2024/01/06 07:00:24;;;;;;;11.73;2.23;;;6.10;99.90;;;;;;5076490;28;20036;-81
2024/01/06 07:02:50;;;;;;;11.18;2.90;;;6.10;99.90;;;;;;5040569;28;20041;-83
2024/01/06 07:05:15;;;;;;;10.20;2.50;;;6.10;99.90;;;;;;5044732;28;20615;-85
2024/01/06 07:07:44;;;;;;;16.80;3.17;;;6.10;99.90;;;;;;5039334;28;20513;-84
2024/01/06 07:10:10;;;;;;;10.15;2.30;;;6.10;99.90;;;;;;5050644;28;20422;-85
2024/01/06 07:12:35;;;;;;;13.43;3.07;;;6.10;99.90;;;;;;5045643;28;20029;-81
2024/01/06 07:15:02;;;;;;;5.90;2.20;;;6.10;99.90;;;;;;5037713;28;20288;-80
2024/01/06 07:17:27;;;;;;;15.15;2.55;;;6.10;99.90;;;;;;5040800;28;20033;-80
2024/01/06 07:19:53;;;;;;;22.40;4.07;;;6.10;99.90;;;;;;5049398;28;20029;-78
2024/01/06 07:22:19;;;;;;;4.72;2.40;;;6.10;99.90;;;;;;5045746;28;20044;-80
2024/01/06 07:24:45;;;;;;;12.95;3.92;;;6.10;99.90;;;;;;5045712;28;20495;-80
2024/01/06 07:27:11;;;;;;;6.20;2.67;;;6.00;99.90;;;;;;5043400;28;20410;-79
2024/01/06 07:29:37;;;;;;;7.57;2.97;;;6.10;99.90;;;;;;5048202;28;20072;-80
2024/01/06 07:32:03;;;;;;;11.73;3.40;;;6.10;99.90;;;;;;5046734;28;20168;-80
2024/01/06 07:34:29;;;;;;;12.90;3.03;;;6.00;99.90;;;;;;5039025;28;20107;-81
2024/01/06 07:36:54;;;;;;;12.43;2.47;;;6.10;99.90;;;;;;5073654;28;20594;-81
2024/01/06 07:39:20;;;;;;;7.63;2.50;;;6.00;99.90;;;;;;5039551;28;20280;-80
2024/01/06 07:41:46;;;;;;;8.07;2.37;;;6.10;99.90;;;;;;5051774;28;20380;-80
2024/01/06 07:44:12;;;;;;;6.03;2.45;;;6.10;99.90;;;;;;5047007;28;20072;-80
2024/01/06 07:46:40;;;;;;;12.27;3.00;;;6.10;99.90;;;;;;5040308;28;20120;-81
2024/01/06 07:49:06;;;;;;;15.85;2.80;;;6.00;99.90;;;;;;5040978;28;20035;-80
2024/01/06 07:51:32;;;;;;;11.57;2.53;;;6.00;99.90;;;;;;5033275;28;20149;-80
2024/01/06 07:53:58;;;;;;;15.37;2.53;;;5.90;99.90;;;;;;5039276;28;20472;-80
2024/01/06 07:56:24;;;;;;;16.00;3.05;;;6.00;99.90;;;;;;5034079;28;20025;-81
2024/01/06 07:58:49;;;;;;;8.10;3.30;;;6.00;99.90;;;;;;5040510;28;20066;-80
2024/01/06 08:01:15;;;;;;;10.30;3.57;;;6.00;99.90;;;;;;5038632;28;20080;-79
2024/01/06 08:03:41;;;;;;;10.83;3.13;;;6.00;99.90;;;;;;5075858;28;20510;-80
2024/01/06 08:06:06;;;;;;;4.63;2.60;;;6.00;99.90;;;;;;5032641;28;20283;-79
2024/01/06 08:08:32;;;;;;;8.47;2.60;;;5.90;99.90;;;;;;5043154;28;20033;-80
2024/01/06 08:10:57;;;;;;;8.33;2.60;;;5.90;99.90;;;;;;5047223;28;20059;-78
2024/01/06 08:13:23;;;;;;;14.23;3.97;;;5.90;99.90;;;;;;5038124;28;20037;-80
2024/01/06 08:15:49;;;;;;;6.47;2.77;;;6.00;99.90;;;;;;5041353;28;20670;-78
2024/01/06 08:18:15;;;;;;;15.30;3.00;;;6.00;99.90;;;;;;5073136;28;20033;-77
2024/01/06 08:20:40;;;;;;;11.35;2.88;;;6.00;99.90;;;;;;5042197;28;20116;-71
2024/01/06 08:23:06;;;;;;;19.57;2.73;;;6.00;99.90;;;;;;5036859;28;20574;-70
2024/01/06 08:25:32;;;;;;;7.93;2.93;;;5.90;99.90;;;;;;5048514;28;20066;-70
2024/01/06 08:27:57;;;;;;;13.63;3.30;;;5.90;99.90;;;;;;5048453;28;20091;-70
2024/01/06 08:30:23;;;;;;;13.50;3.70;;;6.00;99.90;;;;;;5048686;28;20041;-71
2024/01/06 08:32:49;;;;;;;8.88;3.25;;;6.00;99.90;;;;;;5044805;28;20083;-69
2024/01/06 08:35:16;;;;;;;12.97;3.60;;;6.00;99.90;;;;;;5044252;28;20567;-71
2024/01/06 08:37:44;;;;;;;14.80;4.55;;;6.00;99.90;;;;;;5050581;28;20029;-72
2024/01/06 08:40:11;;;;;;;15.18;3.45;;;6.00;99.90;;;;;;5047570;28;20045;-72
2024/01/06 08:42:38;;;;;;;9.75;2.88;;;6.00;99.90;;;;;;5033925;28;20541;-72
2024/01/06 08:45:04;;;;;;;13.95;3.10;;;5.90;99.90;;;;;;5038444;28;20029;-72
2024/01/06 08:47:30;;;;;;;16.00;3.38;;;6.00;99.90;;;;;;5045852;28;20040;-72
2024/01/06 08:49:56;;;;;;;9.95;2.63;;;6.00;99.90;;;;;;5047784;28;20478;-71
2024/01/06 08:52:22;;;;;;;8.33;2.87;;;6.10;99.90;;;;;;5046182;28;20037;-72
2024/01/06 08:54:49;;;;;;;13.37;3.37;;;6.10;99.90;;;;;;5041882;28;20033;-72
2024/01/06 08:57:15;;;;;;;9.13;2.97;;;6.10;99.90;;;;;;5045657;28;20398;-72
2024/01/06 08:59:40;;;;;;;15.52;3.70;;;6.20;99.90;;;;;;5043289;28;20112;-72
2024/01/06 09:02:06;;;;;;;10.33;3.00;;;6.30;99.90;;;;;;5045439;28;20052;-73
2024/01/06 09:04:31;;;;;;;18.17;4.50;;;6.30;99.90;;;;;;5046275;28;20067;-72
2024/01/06 09:06:57;;;;;;;31.97;8.23;;;6.30;99.90;;;;;;5046109;28;20079;-71
2024/01/06 09:09:23;;;;;;;17.83;4.77;;;6.40;99.90;;;;;;5043539;28;20744;-72
2024/01/06 09:11:49;;;;;;;8.50;3.95;;;6.40;99.90;;;;;;5038757;28;20040;-72
2024/01/06 09:14:16;;;;;;;12.53;3.70;;;6.40;99.90;;;;;;5044804;28;20090;-72
2024/01/06 09:16:42;;;;;;;13.07;3.97;;;6.30;99.90;;;;;;5045526;28;20390;-72
2024/01/06 09:19:08;;;;;;;23.70;3.90;;;6.30;99.90;;;;;;5074612;28;20036;-72
2024/01/06 09:21:33;;;;;;;11.97;3.20;;;6.40;99.90;;;;;;5070962;28;20025;-72
2024/01/06 09:24:00;;;;;;;14.13;3.77;;;6.40;99.90;;;;;;5041113;28;20044;-72
2024/01/06 09:26:26;;;;;;;8.77;3.33;;;6.40;99.90;;;;;;5045491;28;20025;-72
2024/01/06 09:28:51;;;;;;;11.20;3.37;;;6.40;99.90;;;;;;5043208;28;20526;-72
2024/01/06 09:31:17;;;;;;;13.47;3.50;;;6.50;99.90;;;;;;5043218;28;20410;-71
2024/01/06 09:33:42;;;;;;;8.17;3.10;;;6.50;99.90;;;;;;5050836;28;20025;-71
2024/01/06 09:36:11;;;;;;;12.47;4.03;;;6.50;99.90;;;;;;5048795;28;20021;-72
2024/01/06 09:38:37;;;;;;;13.75;3.92;;;6.50;99.90;;;;;;5049079;28;20040;-72
2024/01/06 09:41:03;;;;;;;11.60;3.30;;;6.60;99.90;;;;;;5042736;28;20029;-76
2024/01/06 09:43:30;;;;;;;7.30;3.45;;;6.60;99.90;;;;;;5043835;28;20045;-74
2024/01/06 09:46:25;;;;;;;9.40;3.53;;;6.70;99.90;;;;;;5075218;28;20036;-73
2024/01/06 09:48:52;;;;;;;8.85;2.90;;;6.80;99.90;;;;;;5044195;28;20132;-72
2024/01/06 09:51:20;;;;;;;12.73;3.08;;;6.90;99.90;;;;;;5036465;28;20503;-73
2024/01/06 09:53:59;;;;;;;9.52;3.20;;;7.10;99.90;;;;;;5041418;28;20026;-73
2024/01/06 09:56:27;;;;;;;10.55;3.58;;;7.10;99.90;;;;;;5042561;28;20076;-72
2024/01/06 09:58:52;;;;;;;11.30;3.67;;;7.00;99.90;;;;;;5043236;28;20021;-72
2024/01/06 10:01:18;;;;;;;12.57;3.23;;;7.00;99.90;;;;;;5045226;28;20036;-72
2024/01/06 10:03:47;;;;;;;11.45;3.95;;;7.10;99.90;;;;;;5042588;28;20090;-73
2024/01/06 10:06:16;;;;;;;9.55;3.33;;;7.10;99.90;;;;;;5041932;28;20411;-73
2024/01/06 10:08:48;;;;;;;10.23;3.17;;;7.20;99.90;;;;;;5040095;28;20399;-73
2024/01/06 10:11:14;;;;;;;19.63;3.50;;;7.00;99.90;;;;;;5041880;28;20040;-72
2024/01/06 10:13:40;;;;;;;9.70;3.08;;;7.00;99.90;;;;;;5043634;28;20052;-72
2024/01/06 10:16:06;;;;;;;8.27;3.10;;;7.00;99.90;;;;;;5075635;28;20083;-73
2024/01/06 10:18:32;;;;;;;7.30;2.83;;;7.30;99.90;;;;;;5041663;28;20032;-73
2024/01/06 10:20:58;;;;;;;7.90;3.70;;;7.50;99.90;;;;;;5040672;28;20033;-73
2024/01/06 10:23:26;;;;;;;6.82;3.17;;;7.50;99.90;;;;;;5041183;28;20071;-72
2024/01/06 10:25:53;;;;;;;11.93;2.78;;;7.40;99.90;;;;;;5048701;28;20051;-72
2024/01/06 10:28:20;;;;;;;5.80;2.47;;;7.30;99.90;;;;;;5043171;28;20071;-73
2024/01/06 10:30:46;;;;;;;8.77;2.95;;;7.40;99.90;;;;;;5037538;28;20561;-74
2024/01/06 10:33:13;;;;;;;11.67;2.73;;;7.40;99.90;;;;;;5045612;28;20167;-73
2024/01/06 10:35:40;;;;;;;7.00;2.65;;;7.40;99.90;;;;;;5048120;28;20036;-74
2024/01/06 10:38:07;;;;;;;11.88;2.60;;;7.50;99.90;;;;;;5049619;28;20059;-73
2024/01/06 10:40:33;;;;;;;8.00;2.97;;;7.60;99.90;;;;;;5047470;28;20120;-73
2024/01/06 10:43:00;;;;;;;13.07;3.45;;;7.70;99.90;;;;;;5044610;28;20501;-73
2024/01/06 10:45:27;;;;;;;7.47;3.85;;;;;;;;;;5045804;28;20037;-74
2024/01/06 10:47:54;;;;;;;7.38;2.83;;;7.60;99.90;;;;;;5042279;28;20036;-73
2024/01/06 10:50:21;;;;;;;8.10;2.67;;;7.50;99.90;;;;;;5044875;28;20040;-74
2024/01/06 10:52:48;;;;;;;18.48;3.03;;;7.40;99.90;;;;;;5038505;28;20033;-74
2024/01/06 10:55:20;;;;;;;13.35;2.88;;;7.40;99.90;;;;;;5039824;28;20021;-73
2024/01/06 10:57:46;;;;;;;6.32;3.00;;;7.50;99.90;;;;;;5046152;28;20509;-73
2024/01/06 11:00:13;;;;;;;7.78;2.70;;;7.60;99.90;;;;;;5047332;28;20025;-74
2024/01/06 11:02:39;;;;;;;;;;;7.60;99.90;;;;;;5042689;28;20029;-73
2024/01/06 11:05:10;;;;;;;4.78;2.67;;;7.50;99.90;;;;;;5041380;28;19905;-72
2024/01/06 11:07:37;;;;;;;7.90;2.95;;;7.40;99.90;;;;;;5066314;28;20441;-72
2024/01/06 11:10:05;;;;;;;7.80;2.28;;;7.40;99.90;;;;;;5037846;28;20029;-73
2024/01/06 11:12:33;;;;;;;8.15;2.67;;;7.30;99.90;;;;;;5044846;28;20088;-73
2024/01/06 11:14:58;;;;;;;6.10;2.65;;;7.40;99.90;;;;;;5040711;28;20026;-73
2024/01/06 11:17:58;;;;;;;6.07;2.57;;;7.60;99.90;;;;;;5034099;28;20018;-73
2024/01/06 11:20:27;;;;;;;6.72;2.20;;;7.90;99.90;;;;;;5034373;28;20044;-73
2024/01/06 11:22:53;;;;;;;6.03;2.20;;;8.10;99.90;;;;;;5071182;28;20034;-74
2024/01/06 11:25:21;;;;;;;6.00;1.90;;;8.20;99.90;;;;;;5044567;28;20593;-73
2024/01/06 11:27:48;;;;;;;10.05;2.30;;;8.20;99.90;;;;;;5038997;28;20038;-72
2024/01/06 11:30:28;;;;;;;9.52;2.15;;;8.10;99.90;;;;;;5046143;28;20524;-73
2024/01/06 11:33:00;;;;;;;5.32;2.22;;;8.00;99.90;;;;;;5048632;28;20040;-73
2024/01/06 11:35:30;;;;;;;4.57;2.38;;;7.90;99.90;;;;;;5043937;28;20078;-73
2024/01/06 11:38:07;;;;;;;8.15;2.05;;;7.70;99.90;;;;;;5046869;28;20025;-74
2024/01/06 11:40:34;;;;;;;7.63;1.80;;;7.70;99.90;;;;;;5044549;28;20104;-73
2024/01/06 11:43:00;;;;;;;6.55;1.85;;;7.80;99.90;;;;;;5046963;28;20055;-72
2024/01/06 11:45:26;;;;;;;4.67;1.93;;;7.90;99.90;;;;;;5049252;28;20033;-72
2024/01/06 11:48:03;;;;;;;4.30;1.90;;;8.10;99.90;;;;;;5043371;28;20036;-73
2024/01/06 11:50:33;;;;;;;3.78;1.52;;;8.00;99.90;;;;;;5043436;28;20080;-73
2024/01/06 11:52:59;;;;;;;6.18;1.75;;;8.10;99.90;;;;;;5045311;28;20021;-72
2024/01/06 11:55:31;;;;;;;6.13;1.75;;;8.10;99.90;;;;;;5071883;28;20029;-73
2024/01/06 11:57:57;;;;;;;4.28;1.92;;;8.30;99.90;;;;;;5041379;28;20783;-72
2024/01/06 12:00:23;;;;;;;4.80;1.80;;;8.20;99.90;;;;;;5048336;28;20028;-72
2024/01/06 12:02:49;;;;;;;8.50;2.13;;;8.20;99.90;;;;;;5042917;28;20025;-72
2024/01/06 12:05:17;;;;;;;5.90;1.80;;;8.20;99.90;;;;;;5038332;28;20295;-71
2024/01/06 12:07:44;;;;;;;8.43;1.60;;;8.30;99.90;;;;;;5038415;28;20026;-73
2024/01/06 12:10:10;;;;;;;;;;;8.20;99.90;;;;;;5039519;28;20037;-72
2024/01/06 12:12:37;;;;;;;2.25;1.60;;;8.10;99.90;;;;;;5073383;28;19991;-72
2024/01/06 12:15:03;;;;;;;6.55;1.80;;;8.10;99.90;;;;;;5038977;28;20143;-73
2024/01/06 12:17:30;;;;;;;5.43;2.08;;;8.10;99.90;;;;;;5038769;28;20055;-72
2024/01/06 12:19:57;;;;;;;3.40;1.98;;;8.10;99.90;;;;;;5040572;28;20039;-71
2024/01/06 12:22:23;;;;;;;10.57;2.38;;;8.10;99.90;;;;;;5045415;28;20017;-72
2024/01/06 12:24:52;;;;;;;6.35;2.10;;;8.20;99.90;;;;;;5035738;28;20406;-72
2024/01/06 12:27:18;;;;;;;5.82;1.98;;;8.30;99.90;;;;;;5071762;28;20033;-72
2024/01/06 12:29:44;;;;;;;6.28;1.90;;;8.30;99.90;;;;;;5044216;28;20087;-72
2024/01/06 12:32:13;;;;;;;6.60;1.70;;;8.30;99.90;;;;;;5037099;28;20415;-73
2024/01/06 12:34:39;;;;;;;10.52;2.38;;;8.20;99.90;;;;;;5041129;28;20018;-72
2024/01/06 12:37:05;;;;;;;4.85;2.15;;;8.20;99.90;;;;;;5042967;28;20040;-72
2024/01/06 12:39:32;;;;;;;5.50;2.30;;;8.10;99.90;;;;;;5040646;28;20056;-72
2024/01/06 12:42:00;;;;;;;;;;;8.10;99.90;;;;;;5037292;28;20079;-72
2024/01/06 12:44:26;;;;;;;6.60;2.38;;;8.10;99.90;;;;;;5037865;28;20313;-72
2024/01/06 12:46:51;;;;;;;6.43;3.42;;;8.20;99.90;;;;;;5037661;28;20033;-72
2024/01/06 12:49:17;;;;;;;9.00;4.17;;;8.20;99.90;;;;;;5038614;28;20038;-71
2024/01/06 12:51:44;;;;;;;8.70;3.30;;;8.10;99.90;;;;;;5038822;28;20041;-72